Time;durP1;ratioP1;P1;durP2;ratioP2;P2;SDS_P1;SDS_P2;PMS_P1;PMS_P2;Temp;Humidity;BMP_temperature;BMP_pressure;BME280_temperature;BME280_humidity;BME280_pressure;Samples;Min_cycle;Max_cycle;Signal;HPM_P1;HPM_P2
2023/05/04 00:02:14;;;;;;;1.20;1.00;;;21.40;66.30;;;;;;5021720;28;20203;-52
2023/05/04 00:04:42;;;;;;;1.30;0.90;;;21.40;66.20;;;;;;5042752;28;20207;-54
2023/05/04 00:07:08;;;;;;;1.10;1.00;;;21.30;66.10;;;;;;5039430;28;20610;-57
2023/05/04 00:09:36;;;;;;;2.47;0.90;;;21.30;66.10;;;;;;5018123;28;20195;-53
2023/05/04 00:12:03;;;;;;;0.90;0.70;;;21.30;66.10;;;;;;5042143;28;20199;-52
2023/05/04 00:14:30;;;;;;;1.02;0.80;;;21.30;66.10;;;;;;5026049;28;20199;-53
2023/05/04 00:16:57;;;;;;;1.52;0.90;;;21.30;66.20;;;;;;5026721;28;20553;-54
2023/05/04 00:19:24;;;;;;;1.75;1.00;;;21.30;66.20;;;;;;5044591;28;20200;-58
2023/05/04 00:21:50;;;;;;;1.23;0.90;;;21.30;66.20;;;;;;5025416;28;20222;-52
2023/05/04 00:24:17;;;;;;;0.90;0.70;;;21.30;66.20;;;;;;5041388;28;20200;-56
2023/05/04 00:26:45;;;;;;;1.10;0.90;;;21.30;66.20;;;;;;5038809;28;20354;-54
2023/05/04 00:29:12;;;;;;;1.02;0.90;;;21.20;66.00;;;;;;5022754;28;20204;-56
2023/05/04 00:31:39;;;;;;;1.20;0.90;;;21.30;66.20;;;;;;5022480;28;20536;-52
2023/05/04 00:34:06;;;;;;;2.20;1.00;;;21.30;66.20;;;;;;5029628;28;20202;-55
2023/05/04 00:36:32;;;;;;;1.55;0.80;;;21.20;66.00;;;;;;5037689;28;20729;-55
2023/05/04 00:38:59;;;;;;;1.20;0.90;;;21.20;66.00;;;;;;5025595;28;20228;-55
2023/05/04 00:41:26;;;;;;;1.60;0.70;;;21.20;66.00;;;;;;5036732;28;20250;-52
2023/05/04 00:43:54;;;;;;;1.35;1.00;;;21.20;66.00;;;;;;5015538;28;20592;-53
2023/05/04 00:46:21;;;;;;;1.23;0.90;;;21.20;66.00;;;;;;5017235;28;20203;-55
2023/05/04 00:48:51;;;;;;;1.00;0.90;;;21.20;66.00;;;;;;5021002;28;20219;-55
2023/05/04 00:51:19;;;;;;;1.20;0.90;;;21.20;66.00;;;;;;5031231;28;20192;-52
2023/05/04 00:53:48;;;;;;;2.45;0.80;;;21.20;66.00;;;;;;5029457;28;20223;-57
2023/05/04 00:56:15;;;;;;;1.00;0.80;;;21.20;66.00;;;;;;5031820;28;20285;-57
2023/05/04 00:58:42;;;;;;;1.15;1.05;;;21.20;66.00;;;;;;5024636;28;20216;-55
2023/05/04 01:01:10;;;;;;;1.65;1.00;;;21.20;66.10;;;;;;5026897;28;20200;-57
2023/05/04 01:03:37;;;;;;;1.10;0.90;;;21.10;66.00;;;;;;5027096;28;20676;-55
2023/05/04 01:06:22;;;;;;;1.40;1.10;;;21.10;66.00;;;;;;5029085;28;20192;-52
2023/05/04 01:08:55;;;;;;;1.08;0.98;;;21.10;66.00;;;;;;5027020;28;20234;-57
2023/05/04 01:11:27;;;;;;;1.05;0.90;;;21.10;66.00;;;;;;5032667;28;20652;-53
2023/05/04 01:13:56;;;;;;;1.20;0.80;;;21.10;66.00;;;;;;5026980;28;20239;-55
2023/05/04 01:16:24;;;;;;;0.95;0.77;;;21.10;66.00;;;;;;5035438;28;20199;-55
2023/05/04 01:18:51;;;;;;;1.10;0.90;;;21.10;66.00;;;;;;5038711;28;20592;-54
2023/05/04 01:21:17;;;;;;;1.10;0.90;;;21.10;66.00;;;;;;5039151;28;20191;-53
2023/05/04 01:23:45;;;;;;;1.10;0.80;;;21.10;66.00;;;;;;5033281;28;20195;-52
2023/05/04 01:26:18;;;;;;;1.50;0.90;;;21.10;66.00;;;;;;5024609;28;20205;-53
2023/05/04 01:28:49;;;;;;;2.00;0.90;;;21.10;66.00;;;;;;5026472;28;20195;-57
2023/05/04 01:31:19;;;;;;;1.10;0.85;;;21.10;66.10;;;;;;5030577;28;20205;-55
2023/05/04 01:33:47;;;;;;;1.30;1.20;;;21.00;66.70;;;;;;5026153;28;20203;-54
2023/05/04 01:36:14;;;;;;;1.25;0.85;;;21.00;66.00;;;;;;5038237;28;20602;-56
2023/05/04 01:38:42;;;;;;;1.58;1.08;;;21.00;66.80;;;;;;5036628;28;20224;-57
2023/05/04 01:41:10;;;;;;;1.10;1.00;;;21.00;66.00;;;;;;5028067;28;20245;-56
2023/05/04 01:43:36;;;;;;;1.65;1.10;;;21.00;66.00;;;;;;5028490;28;20664;-58
2023/05/04 01:46:03;;;;;;;1.05;0.85;;;21.00;66.00;;;;;;5033711;28;20208;-56
2023/05/04 01:48:30;;;;;;;1.35;0.90;;;21.00;66.00;;;;;;5021815;28;20200;-51
2023/05/04 01:50:56;;;;;;;1.05;0.80;;;21.00;66.10;;;;;;5019871;28;20200;-54
2023/05/04 01:53:23;;;;;;;1.00;0.80;;;21.00;66.10;;;;;;5020209;28;20285;-59
2023/05/04 01:55:50;;;;;;;1.30;1.00;;;21.00;65.90;;;;;;5025097;28;20204;-59
2023/05/04 01:58:18;;;;;;;1.27;0.90;;;21.00;65.80;;;;;;5029774;28;20761;-55
2023/05/04 02:00:45;;;;;;;1.15;0.98;;;21.00;65.80;;;;;;5035913;28;20718;-54
2023/05/04 02:03:12;;;;;;;1.00;0.80;;;21.00;65.90;;;;;;5028426;28;20521;-57
2023/05/04 02:05:38;;;;;;;1.10;0.88;;;21.00;65.80;;;;;;5033028;28;20552;-53
2023/05/04 02:08:05;;;;;;;1.30;1.13;;;21.00;65.90;;;;;;5032725;28;20214;-54
2023/05/04 02:10:32;;;;;;;1.55;1.15;;;21.00;65.80;;;;;;5034146;28;20718;-52
2023/05/04 02:12:59;;;;;;;1.65;1.10;;;21.00;65.90;;;;;;5035024;28;20199;-56
2023/05/04 02:15:27;;;;;;;1.90;0.80;;;21.00;66.00;;;;;;5027536;28;20258;-52
2023/05/04 02:17:54;;;;;;;1.00;0.85;;;21.00;66.00;;;;;;5035347;28;20223;-56
2023/05/04 02:20:20;;;;;;;1.75;1.17;;;20.90;65.90;;;;;;5024951;28;20200;-54
2023/05/04 02:22:47;;;;;;;1.10;0.90;;;21.00;66.00;;;;;;5033408;28;20620;-51
2023/05/04 02:25:14;;;;;;;1.00;0.90;;;21.00;66.00;;;;;;5034125;28;20204;-55
2023/05/04 02:27:41;;;;;;;1.10;1.00;;;21.00;66.00;;;;;;5030607;28;20203;-56
2023/05/04 02:30:09;;;;;;;1.40;0.90;;;21.00;66.00;;;;;;5029195;28;20222;-55
2023/05/04 02:32:37;;;;;;;1.35;0.90;;;20.90;65.90;;;;;;5029988;28;20203;-55
2023/05/04 02:35:04;;;;;;;1.10;0.80;;;21.00;66.00;;;;;;5035061;28;20208;-53
2023/05/04 02:37:30;;;;;;;0.90;0.77;;;21.00;66.00;;;;;;5028904;28;20196;-58
2023/05/04 02:39:57;;;;;;;1.83;0.90;;;20.90;65.90;;;;;;5027242;28;20204;-55
2023/05/04 02:42:24;;;;;;;1.00;0.80;;;20.90;66.60;;;;;;5033605;28;20192;-55
2023/05/04 02:44:51;;;;;;;1.00;0.80;;;20.90;67.30;;;;;;5023855;28;20204;-58
2023/05/04 02:47:18;;;;;;;1.10;0.95;;;20.90;67.00;;;;;;5025217;28;20210;-55
2023/05/04 02:49:46;;;;;;;1.90;1.10;;;20.90;66.90;;;;;;5027843;28;20564;-50
2023/05/04 02:52:12;;;;;;;1.55;1.20;;;20.90;66.80;;;;;;5023239;28;20434;-56
2023/05/04 02:54:39;;;;;;;1.20;0.90;;;20.90;66.80;;;;;;5015028;28;20563;-55
2023/05/04 02:57:06;;;;;;;2.40;0.80;;;20.90;66.70;;;;;;5030642;28;20215;-54
2023/05/04 02:59:32;;;;;;;1.05;0.95;;;20.90;66.70;;;;;;5030474;28;20663;-56
2023/05/04 03:01:59;;;;;;;0.90;0.65;;;20.90;66.80;;;;;;5041870;28;20200;-53
2023/05/04 03:04:26;;;;;;;3.95;0.90;;;20.90;66.70;;;;;;5038870;28;20195;-54
2023/05/04 03:06:54;;;;;;;1.00;0.80;;;20.90;66.80;;;;;;5027996;28;20197;-58
2023/05/04 03:09:21;;;;;;;2.03;1.05;;;20.90;66.70;;;;;;5030108;28;20200;-56
2023/05/04 03:11:48;;;;;;;1.40;0.88;;;20.90;66.70;;;;;;5026128;28;20196;-56
2023/05/04 03:14:15;;;;;;;1.10;0.80;;;20.90;66.80;;;;;;5039594;28;20192;-55
2023/05/04 03:16:41;;;;;;;1.00;0.80;;;20.90;66.70;;;;;;5021348;28;20575;-60
2023/05/04 03:19:08;;;;;;;1.00;0.80;;;20.90;66.70;;;;;;5037617;28;20227;-56
2023/05/04 03:21:35;;;;;;;0.93;0.82;;;20.90;66.70;;;;;;5030298;28;20199;-57
2023/05/04 03:24:04;;;;;;;1.00;0.90;;;20.90;66.70;;;;;;5021454;28;20273;-56
2023/05/04 03:26:31;;;;;;;1.00;0.90;;;20.80;66.60;;;;;;5031589;28;20291;-53
2023/05/04 03:28:58;;;;;;;1.00;0.90;;;20.80;66.70;;;;;;5028827;28;20208;-58
2023/05/04 03:31:24;;;;;;;0.90;0.70;;;20.80;66.70;;;;;;5020984;28;20201;-54
2023/05/04 03:33:51;;;;;;;1.10;0.82;;;20.80;66.70;;;;;;5027148;28;20655;-54
2023/05/04 03:36:18;;;;;;;1.05;0.80;;;20.90;66.70;;;;;;5035527;28;20200;-54
2023/05/04 03:38:45;;;;;;;1.10;0.80;;;20.90;66.70;;;;;;5027689;28;20753;-56
2023/05/04 03:41:13;;;;;;;1.10;0.88;;;20.90;66.70;;;;;;5030911;28;20196;-55
2023/05/04 03:43:40;;;;;;;1.15;0.90;;;20.90;66.70;;;;;;5033566;28;20192;-54
2023/05/04 03:46:07;;;;;;;1.15;0.80;;;20.90;66.60;;;;;;5017655;28;20224;-55
2023/05/04 03:48:34;;;;;;;1.00;0.85;;;20.90;66.60;;;;;;5021215;28;20196;-56
2023/05/04 03:51:01;;;;;;;1.52;1.23;;;20.90;66.60;;;;;;5025991;28;20204;-55
2023/05/04 03:53:27;;;;;;;1.00;0.80;;;20.80;66.50;;;;;;5024975;28;20570;-53
2023/05/04 03:55:54;;;;;;;1.58;1.33;;;20.80;67.20;;;;;;5032379;28;20196;-56
2023/05/04 03:58:22;;;;;;;1.15;0.80;;;20.80;67.30;;;;;;5033831;28;20219;-55
2023/05/04 04:00:49;;;;;;;1.00;0.80;;;20.80;66.40;;;;;;5029615;28;20202;-54
2023/05/04 04:03:16;;;;;;;1.00;0.80;;;20.80;66.50;;;;;;5038938;28;20200;-54
2023/05/04 04:05:42;;;;;;;1.00;0.80;;;20.80;66.50;;;;;;5046165;28;20667;-54
2023/05/04 04:08:09;;;;;;;1.15;0.90;;;20.80;66.40;;;;;;5046188;28;20206;-57
2023/05/04 04:10:36;;;;;;;1.10;1.00;;;20.80;66.40;;;;;;5026292;28;20192;-56
2023/05/04 04:13:03;;;;;;;0.90;0.75;;;20.80;66.40;;;;;;5032036;28;20729;-55
2023/05/04 04:15:31;;;;;;;0.90;0.70;;;20.80;66.40;;;;;;5024831;28;20200;-55
2023/05/04 04:17:57;;;;;;;1.23;0.80;;;20.80;66.50;;;;;;5026673;28;20378;-52
2023/05/04 04:20:24;;;;;;;1.25;0.60;;;20.80;66.40;;;;;;5037675;28;20200;-56
2023/05/04 04:22:51;;;;;;;1.00;0.80;;;20.80;66.40;;;;;;5024135;28;20270;-54
2023/05/04 04:25:18;;;;;;;1.65;1.02;;;20.80;66.50;;;;;;5030919;28;20199;-56
2023/05/04 04:27:45;;;;;;;0.90;0.60;;;20.80;66.40;;;;;;5031120;28;20205;-54
2023/05/04 04:30:12;;;;;;;1.40;0.90;;;20.80;66.40;;;;;;5023616;28;20203;-54
2023/05/04 04:32:41;;;;;;;1.10;0.93;;;20.80;66.50;;;;;;5021797;28;20191;-58
2023/05/04 04:35:08;;;;;;;1.20;0.80;;;20.70;66.30;;;;;;5021308;28;20357;-54
2023/05/04 04:37:35;;;;;;;1.17;1.02;;;20.80;66.40;;;;;;5027716;28;20222;-58
2023/05/04 04:40:02;;;;;;;1.40;1.27;;;20.80;66.40;;;;;;5027786;28;20665;-54
2023/05/04 04:42:29;;;;;;;0.90;0.70;;;20.80;66.40;;;;;;5030652;28;20204;-56
2023/05/04 04:44:56;;;;;;;1.00;0.80;;;20.70;66.20;;;;;;5015923;28;20196;-55
2023/05/04 04:47:22;;;;;;;1.10;0.70;;;20.70;66.20;;;;;;5020174;28;20204;-57
2023/05/04 04:49:50;;;;;;;1.08;0.88;;;20.70;66.40;;;;;;5026400;28;20200;-52
2023/05/04 04:52:17;;;;;;;0.90;0.70;;;20.70;66.50;;;;;;5024655;28;20215;-51
2023/05/04 04:54:45;;;;;;;1.15;0.90;;;20.70;66.60;;;;;;5033418;28;20202;-55
2023/05/04 04:57:12;;;;;;;0.90;0.70;;;20.80;66.60;;;;;;5038167;28;20250;-56
2023/05/04 04:59:39;;;;;;;0.95;0.80;;;20.80;66.60;;;;;;5018544;28;20254;-52
2023/05/04 05:02:05;;;;;;;1.13;0.90;;;20.80;66.50;;;;;;5037118;28;20191;-54
2023/05/04 05:04:32;;;;;;;1.20;1.00;;;20.80;66.50;;;;;;5040965;28;20211;-54
2023/05/04 05:07:00;;;;;;;0.82;0.70;;;20.80;66.50;;;;;;5028548;28;20203;-54
2023/05/04 05:09:27;;;;;;;0.90;0.63;;;20.80;66.50;;;;;;5033418;28;20630;-57
2023/05/04 05:11:54;;;;;;;0.90;0.70;;;20.70;66.40;;;;;;5036772;28;20199;-55
2023/05/04 05:14:21;;;;;;;1.17;0.95;;;20.70;66.40;;;;;;5038110;28;20210;-57
2023/05/04 05:16:47;;;;;;;1.10;0.82;;;20.80;66.40;;;;;;5030871;28;20203;-54
2023/05/04 05:19:15;;;;;;;1.35;0.70;;;20.80;66.40;;;;;;5033084;28;20227;-55
2023/05/04 05:21:41;;;;;;;0.98;0.80;;;20.80;66.40;;;;;;5032294;28;20266;-54
2023/05/04 05:24:10;;;;;;;0.98;0.85;;;20.80;66.40;;;;;;5030375;28;20254;-52
2023/05/04 05:26:36;;;;;;;1.00;0.80;;;20.80;66.40;;;;;;5030936;28;20698;-53
2023/05/04 05:29:03;;;;;;;0.95;0.75;;;20.80;66.40;;;;;;5028823;28;20609;-53
2023/05/04 05:31:30;;;;;;;1.05;0.85;;;20.80;66.30;;;;;;5018543;28;20200;-54
2023/05/04 05:33:57;;;;;;;1.00;0.80;;;20.80;66.20;;;;;;5033611;28;20198;-53
2023/05/04 05:36:24;;;;;;;1.05;0.75;;;20.90;66.40;;;;;;5040285;28;20721;-53
2023/05/04 05:38:51;;;;;;;0.85;0.70;;;20.90;66.40;;;;;;5021432;28;20219;-53
2023/05/04 05:41:19;;;;;;;1.25;0.73;;;20.90;66.30;;;;;;5016379;28;20466;-60
2023/05/04 05:43:46;;;;;;;0.90;0.80;;;20.90;66.20;;;;;;5024167;28;20201;-53
2023/05/04 05:46:14;;;;;;;1.00;0.80;;;20.90;66.20;;;;;;5023261;28;20250;-56
2023/05/04 05:48:41;;;;;;;1.00;0.80;;;20.90;66.30;;;;;;5026271;28;20262;-51
2023/05/04 05:51:08;;;;;;;1.00;0.80;;;20.90;66.20;;;;;;5037949;28;20206;-58
2023/05/04 05:53:34;;;;;;;1.00;0.80;;;20.90;66.20;;;;;;5017141;28;20207;-53
2023/05/04 05:56:01;;;;;;;1.65;1.10;;;21.00;66.40;;;;;;5028354;28;20657;-56
2023/05/04 05:58:29;;;;;;;1.00;0.77;;;20.90;66.20;;;;;;5031303;28;20618;-55
2023/05/04 06:00:56;;;;;;;0.90;0.80;;;21.00;66.30;;;;;;5018208;28;20206;-58
2023/05/04 06:03:22;;;;;;;0.88;0.70;;;21.00;66.40;;;;;;5035978;28;20191;-55
2023/05/04 06:05:49;;;;;;;1.10;0.82;;;21.10;66.40;;;;;;5031205;28;20250;-56
2023/05/04 06:08:17;;;;;;;1.10;0.90;;;21.10;66.40;;;;;;5041753;28;20222;-55
2023/05/04 06:10:43;;;;;;;1.00;0.70;;;21.10;66.30;;;;;;5032621;28;20203;-56
2023/05/04 06:13:10;;;;;;;1.13;0.87;;;21.20;66.40;;;;;;5023550;28;20203;-53
2023/05/04 06:15:38;;;;;;;1.15;0.80;;;21.20;67.10;;;;;;5039286;28;20457;-54
2023/05/04 06:18:05;;;;;;;1.90;0.93;;;21.30;66.40;;;;;;5040544;28;20199;-54
2023/05/04 06:20:32;;;;;;;1.00;0.80;;;21.20;66.30;;;;;;5036775;28;20544;-54
2023/05/04 06:22:58;;;;;;;1.10;0.98;;;21.30;66.30;;;;;;5037988;28;20474;-54
2023/05/04 06:25:25;;;;;;;1.15;0.80;;;21.30;66.40;;;;;;5035272;28;20673;-58
2023/05/04 06:27:52;;;;;;;0.90;0.70;;;21.30;66.80;;;;;;5032332;28;20535;-54
2023/05/04 06:30:23;;;;;;;1.05;0.80;;;21.30;66.40;;;;;;5028408;28;20204;-53
2023/05/04 06:32:51;;;;;;;1.40;0.98;;;21.30;66.40;;;;;;5039937;28;20200;-53
2023/05/04 06:35:18;;;;;;;1.30;0.85;;;21.30;66.40;;;;;;5040540;28;20210;-58
2023/05/04 06:37:44;;;;;;;0.90;0.70;;;21.30;66.30;;;;;;5033557;28;20196;-53
2023/05/04 06:40:12;;;;;;;1.10;0.80;;;21.30;66.20;;;;;;5035855;28;20473;-54
2023/05/04 06:42:39;;;;;;;1.00;0.80;;;21.30;66.30;;;;;;5033029;28;20668;-57
2023/05/04 06:45:07;;;;;;;1.90;0.90;;;21.40;66.40;;;;;;5025328;28;20483;-52
2023/05/04 06:47:35;;;;;;;1.03;0.90;;;21.40;66.30;;;;;;5032330;28;20206;-54
2023/05/04 06:50:08;;;;;;;0.93;0.80;;;21.40;66.20;;;;;;5031979;28;20558;-55
2023/05/04 06:52:35;;;;;;;1.30;0.80;;;21.40;66.30;;;;;;5027307;28;20563;-57
2023/05/04 06:55:01;;;;;;;1.20;0.87;;;21.40;66.30;;;;;;5027525;28;20489;-52
2023/05/04 06:57:29;;;;;;;0.90;0.70;;;21.40;66.30;;;;;;5023759;28;20463;-54
2023/05/04 06:59:56;;;;;;;0.90;0.80;;;21.40;66.20;;;;;;5026211;28;20985;-57
2023/05/04 07:02:22;;;;;;;1.10;0.70;;;21.40;66.20;;;;;;5030632;28;20207;-51
2023/05/04 07:04:51;;;;;;;1.33;0.88;;;21.40;66.20;;;;;;5030421;28;20203;-55
2023/05/04 07:07:19;;;;;;;2.00;0.90;;;21.40;66.20;;;;;;5028657;28;20192;-56
2023/05/04 07:09:47;;;;;;;0.90;0.70;;;21.40;66.10;;;;;;5032349;28;20540;-57
2023/05/04 07:12:13;;;;;;;0.80;0.65;;;21.40;66.00;;;;;;5036765;28;20453;-55
2023/05/04 07:14:40;;;;;;;0.90;0.80;;;21.40;66.00;;;;;;5032774;28;20254;-58
2023/05/04 07:17:08;;;;;;;0.95;0.80;;;21.40;66.00;;;;;;5031969;28;20258;-53
2023/05/04 07:19:35;;;;;;;0.90;0.70;;;21.40;66.00;;;;;;5031523;28;20286;-54
2023/05/04 07:22:02;;;;;;;1.00;0.80;;;21.40;66.00;;;;;;5028811;28;20220;-56
2023/05/04 07:24:31;;;;;;;1.00;0.80;;;21.40;66.00;;;;;;5032543;28;20651;-56
2023/05/04 07:26:58;;;;;;;1.10;0.90;;;21.50;66.10;;;;;;5025979;28;20467;-56
2023/05/04 07:29:25;;;;;;;1.30;0.90;;;21.50;66.10;;;;;;5024240;28;21223;-57
2023/05/04 07:31:51;;;;;;;0.90;0.70;;;21.50;66.10;;;;;;5027198;28;20195;-54
2023/05/04 07:34:18;;;;;;;2.37;0.90;;;21.50;66.00;;;;;;5033020;28;20639;-59
2023/05/04 07:36:45;;;;;;;1.83;1.60;;;21.50;66.40;;;;;;5028717;28;20800;-58
2023/05/04 07:39:12;;;;;;;1.65;1.50;;;21.50;65.60;;;;;;5023396;28;20201;-52
2023/05/04 07:41:40;;;;;;;7.53;2.47;;;21.50;64.80;;;;;;5027096;28;20202;-57
2023/05/04 07:44:07;;;;;;;6.33;1.33;;;21.40;64.50;;;;;;5032263;28;20459;-58
2023/05/04 07:46:34;;;;;;;3.05;1.60;;;21.30;64.60;;;;;;5017385;28;20754;-55
2023/05/04 07:49:01;;;;;;;1.90;1.33;;;21.30;65.70;;;;;;5022725;28;20208;-64
2023/05/04 07:51:28;;;;;;;2.20;1.07;;;21.30;65.30;;;;;;5028995;28;20196;-66
2023/05/04 07:53:55;;;;;;;3.80;1.10;;;21.40;65.40;;;;;;5025698;28;20975;-61
2023/05/04 07:56:22;;;;;;;1.50;1.00;;;21.40;65.60;;;;;;5018413;28;20451;-58
2023/05/04 07:58:50;;;;;;;1.35;1.25;;;21.40;65.70;;;;;;5030875;28;20463;-64
2023/05/04 08:01:17;;;;;;;1.10;0.80;;;21.40;65.70;;;;;;5020913;28;20231;-51
2023/05/04 08:03:44;;;;;;;3.53;1.20;;;21.40;65.70;;;;;;5027194;28;20196;-56
2023/05/04 08:06:10;;;;;;;1.30;0.90;;;21.40;65.70;;;;;;5028975;28;20674;-57
2023/05/04 08:08:37;;;;;;;5.18;1.10;;;21.40;65.60;;;;;;5018716;28;20458;-51
2023/05/04 08:11:04;;;;;;;8.93;1.50;;;21.40;65.60;;;;;;5033216;28;20207;-51
2023/05/04 08:13:30;;;;;;;5.43;1.13;;;21.40;65.60;;;;;;5026116;28;20295;-61
2023/05/04 08:16:00;;;;;;;5.45;1.00;;;21.40;66.40;;;;;;5022124;28;20246;-54
2023/05/04 08:18:27;;;;;;;1.10;0.87;;;21.50;65.70;;;;;;5030377;28;20203;-54
2023/05/04 08:20:54;;;;;;;1.40;1.30;;;21.40;65.60;;;;;;5034966;28;20560;-55
2023/05/04 08:23:21;;;;;;;1.10;0.88;;;21.40;65.60;;;;;;5020440;28;20514;-60
2023/05/04 08:25:47;;;;;;;2.23;1.03;;;21.40;65.60;;;;;;5025447;28;20592;-53
2023/05/04 08:28:14;;;;;;;1.05;0.90;;;21.40;65.50;;;;;;5025900;28;20463;-56
2023/05/04 08:30:41;;;;;;;1.25;1.15;;;21.40;65.40;;;;;;5019683;28;20599;-57
2023/05/04 08:33:09;;;;;;;1.00;0.80;;;21.40;65.40;;;;;;5027118;28;20203;-52
2023/05/04 08:35:36;;;;;;;4.50;1.23;;;21.40;65.40;;;;;;5033363;28;20487;-57
2023/05/04 08:38:03;;;;;;;1.37;1.10;;;21.40;65.40;;;;;;5020830;28;20510;-52
2023/05/04 08:40:30;;;;;;;2.33;0.80;;;21.40;65.40;;;;;;5025389;28;20851;-52
2023/05/04 08:42:57;;;;;;;2.55;1.75;;;21.40;65.40;;;;;;5030805;28;20458;-55
2023/05/04 08:45:25;;;;;;;1.10;1.00;;;21.40;65.30;;;;;;5016402;28;20660;-59
2023/05/04 08:47:52;;;;;;;1.35;0.90;;;21.40;65.30;;;;;;5024698;28;20239;-54
2023/05/04 08:50:20;;;;;;;1.07;0.83;;;21.40;65.20;;;;;;5031709;28;20204;-52
2023/05/04 08:52:47;;;;;;;2.53;1.20;;;21.50;65.40;;;;;;5029126;28;20463;-57
2023/05/04 08:55:15;;;;;;;2.20;0.90;;;21.40;65.20;;;;;;5026494;28;20222;-52
2023/05/04 08:57:43;;;;;;;1.20;0.90;;;21.40;65.20;;;;;;5027944;28;20211;-58
2023/05/04 09:00:12;;;;;;;2.55;1.33;;;21.50;65.30;;;;;;5017640;28;20881;-60
2023/05/04 09:02:39;;;;;;;1.50;1.20;;;21.50;65.30;;;;;;5019095;28;20288;-64
2023/05/04 09:05:07;;;;;;;1.48;1.02;;;21.50;65.40;;;;;;5030956;28;20534;-54
2023/05/04 09:07:35;;;;;;;1.10;0.80;;;21.50;65.50;;;;;;5026488;28;20231;-59
2023/05/04 09:10:03;;;;;;;0.90;0.80;;;21.50;65.60;;;;;;5029938;28;20204;-53
2023/05/04 09:12:30;;;;;;;0.90;0.80;;;21.50;65.50;;;;;;5029244;28;20204;-54
2023/05/04 09:14:57;;;;;;;1.08;0.88;;;21.50;65.50;;;;;;5019389;28;20773;-52
2023/05/04 09:17:26;;;;;;;1.33;0.93;;;21.50;65.70;;;;;;5020649;28;20383;-51
2023/05/04 09:20:01;;;;;;;2.40;0.88;;;21.50;65.70;;;;;;5024433;28;21583;-51
2023/05/04 09:22:28;;;;;;;5.88;1.00;;;21.50;65.80;;;;;;5021345;28;20215;-59
2023/05/04 09:25:09;;;;;;;1.80;1.10;;;21.50;66.40;;;;;;5016963;28;20200;-58
2023/05/04 09:27:39;;;;;;;2.45;1.00;;;21.60;66.40;;;;;;5022589;28;20541;-54
2023/05/04 09:30:07;;;;;;;7.00;1.00;;;21.60;66.30;;;;;;5021214;28;20352;-57
2023/05/04 09:32:37;;;;;;;1.37;0.83;;;21.70;66.30;;;;;;5020974;28;21041;-56
2023/05/04 09:35:05;;;;;;;1.43;0.90;;;21.70;66.20;;;;;;5022424;28;20862;-57
2023/05/04 09:37:43;;;;;;;1.40;0.90;;;21.70;66.20;;;;;;5019433;28;20483;-56
2023/05/04 09:40:13;;;;;;;5.17;0.90;;;21.70;66.20;;;;;;5022732;28;20482;-57
2023/05/04 09:42:40;;;;;;;1.50;0.90;;;21.70;66.10;;;;;;5023955;28;20797;-56
2023/05/04 09:45:08;;;;;;;4.53;1.20;;;21.70;66.10;;;;;;5019961;28;20477;-61
2023/05/04 09:47:36;;;;;;;2.90;1.73;;;21.70;66.00;;;;;;5014202;28;20926;-59
2023/05/04 09:50:16;;;;;;;3.63;1.10;;;21.70;66.20;;;;;;5021771;28;20589;-56
2023/05/04 09:52:44;;;;;;;0.97;0.87;;;21.70;66.40;;;;;;5021814;28;20878;-56
2023/05/04 09:55:13;;;;;;;2.95;0.95;;;21.70;66.30;;;;;;5022269;28;20850;-57
2023/05/04 09:57:41;;;;;;;2.90;0.90;;;21.70;66.20;;;;;;5018639;28;20667;-60
2023/05/04 10:00:11;;;;;;;1.23;0.80;;;21.70;66.20;;;;;;5020577;28;20482;-55
2023/05/04 10:02:39;;;;;;;1.37;0.80;;;21.70;66.20;;;;;;5019133;28;20550;-56
2023/05/04 10:05:08;;;;;;;2.20;1.10;;;21.70;66.20;;;;;;5020942;28;20499;-60
2023/05/04 10:07:35;;;;;;;1.20;1.08;;;21.70;66.20;;;;;;5019734;28;20520;-57
2023/05/04 10:10:02;;;;;;;1.33;0.90;;;21.70;66.20;;;;;;5022679;28;20344;-59
2023/05/04 10:12:30;;;;;;;1.52;1.00;;;21.70;66.20;;;;;;5021918;28;20809;-54
2023/05/04 10:14:57;;;;;;;1.90;1.30;;;21.70;66.10;;;;;;5018256;28;20204;-55
2023/05/04 10:17:37;;;;;;;1.07;0.87;;;21.70;66.20;;;;;;5022433;28;20200;-59
2023/05/04 10:20:18;;;;;;;2.50;1.08;;;21.70;66.10;;;;;;5022804;28;20466;-56
2023/05/04 10:23:02;;;;;;;1.80;1.03;;;21.70;66.10;;;;;;5021358;28;20277;-57
2023/05/04 10:26:01;;;;;;;3.43;1.00;;;21.70;66.20;;;;;;5029299;28;20454;-58
2023/05/04 10:28:42;;;;;;;1.23;1.00;;;21.70;66.10;;;;;;5018083;28;20452;-64
2023/05/04 10:31:09;;;;;;;1.70;0.97;;;21.70;66.00;;;;;;5020458;28;20522;-56
2023/05/04 10:33:39;;;;;;;2.80;1.00;;;21.80;66.30;;;;;;5021544;28;20959;-64
2023/05/04 10:36:07;;;;;;;1.73;1.00;;;21.80;66.40;;;;;;5030976;28;21428;-58
2023/05/04 10:38:34;;;;;;;1.83;1.20;;;21.80;66.20;;;;;;5019337;28;20489;-66
2023/05/04 10:41:01;;;;;;;4.23;1.07;;;21.90;66.50;;;;;;5019262;28;20939;-65
2023/05/04 10:43:28;;;;;;;1.20;0.90;;;21.90;66.40;;;;;;5026359;28;20461;-63
2023/05/04 10:45:57;;;;;;;3.10;1.10;;;21.90;66.50;;;;;;5030560;28;20955;-58
2023/05/04 10:48:33;;;;;;;1.70;1.30;;;21.90;66.70;;;;;;5031703;28;20834;-59
2023/05/04 10:51:00;;;;;;;1.10;0.90;;;21.90;66.70;;;;;;5034702;28;20836;-60
2023/05/04 10:53:32;;;;;;;1.40;1.03;;;21.90;66.70;;;;;;5035048;28;20513;-61
2023/05/04 10:55:59;;;;;;;1.40;1.00;;;22.00;66.90;;;;;;5036241;28;20474;-65
2023/05/04 10:58:28;;;;;;;4.63;1.63;;;22.00;66.90;;;;;;5028545;28;20505;-58
2023/05/04 11:00:57;;;;;;;1.13;0.90;;;22.00;67.00;;;;;;5023159;28;20541;-58
2023/05/04 11:03:24;;;;;;;1.03;0.90;;;22.00;67.00;;;;;;5030984;28;20950;-62
2023/05/04 11:05:53;;;;;;;2.07;0.90;;;22.00;66.90;;;;;;5023480;28;20489;-64
2023/05/04 11:08:22;;;;;;;1.50;1.00;;;22.00;66.70;;;;;;5032380;28;20889;-60
2023/05/04 11:11:00;;;;;;;1.20;0.90;;;22.00;66.50;;;;;;5028288;28;20536;-61
2023/05/04 11:13:29;;;;;;;1.30;0.90;;;22.10;66.70;;;;;;5027884;28;20553;-56
2023/05/04 11:15:57;;;;;;;1.47;0.90;;;22.10;66.70;;;;;;5024775;28;20466;-60
2023/05/04 11:18:28;;;;;;;1.33;0.80;;;22.10;66.60;;;;;;5036954;28;20457;-56
2023/05/04 11:20:54;;;;;;;1.10;0.93;;;22.20;66.70;;;;;;5032383;28;20789;-61
2023/05/04 11:23:22;;;;;;;2.33;0.90;;;22.20;66.70;;;;;;5022622;28;20477;-56
2023/05/04 11:25:49;;;;;;;1.10;1.00;;;22.20;66.60;;;;;;5032289;28;20480;-65
2023/05/04 11:28:16;;;;;;;1.30;1.00;;;22.30;66.70;;;;;;5029570;28;20450;-62
2023/05/04 11:30:44;;;;;;;2.93;0.83;;;22.30;66.70;;;;;;5019607;28;20874;-63
2023/05/04 11:33:14;;;;;;;1.00;0.87;;;22.30;66.50;;;;;;5019474;28;20486;-63
2023/05/04 11:35:42;;;;;;;1.10;0.90;;;22.30;66.50;;;;;;5035870;28;20506;-67
2023/05/04 11:38:09;;;;;;;1.97;0.80;;;22.30;66.50;;;;;;5012937;28;20537;-60
2023/05/04 11:40:39;;;;;;;1.27;1.00;;;22.40;66.60;;;;;;5031033;28;20459;-55
2023/05/04 11:43:10;;;;;;;1.47;0.83;;;22.40;66.60;;;;;;5032075;28;20486;-61
2023/05/04 11:45:39;;;;;;;1.10;0.83;;;22.40;66.60;;;;;;5021806;28;20459;-66
2023/05/04 11:48:08;;;;;;;1.20;0.90;;;22.50;66.50;;;;;;5023502;28;20874;-63
2023/05/04 11:50:36;;;;;;;1.80;1.03;;;22.50;66.50;;;;;;5024802;28;20462;-68
2023/05/04 11:53:05;;;;;;;1.40;0.93;;;22.50;66.60;;;;;;5029657;28;20467;-66
2023/05/04 11:55:32;;;;;;;3.87;1.03;;;22.50;66.60;;;;;;5022717;28;20804;-66
2023/05/04 11:57:59;;;;;;;3.53;1.10;;;22.50;66.50;;;;;;5027451;28;20466;-66
2023/05/04 12:00:38;;;;;;;2.07;1.10;;;22.40;66.50;;;;;;5027337;28;20450;-69
2023/05/04 12:03:06;;;;;;;1.10;0.87;;;22.40;66.50;;;;;;5036492;28;20466;-68
2023/05/04 12:05:33;;;;;;;1.10;0.90;;;22.40;66.70;;;;;;5043592;28;20438;-63
2023/05/04 12:08:02;;;;;;;3.63;0.97;;;22.40;66.70;;;;;;5029989;28;20509;-73
2023/05/04 12:10:30;;;;;;;2.43;1.13;;;22.40;67.00;;;;;;5021825;28;20455;-61
2023/05/04 12:12:56;;;;;;;1.30;1.03;;;22.40;67.10;;;;;;5026755;28;20958;-56
2023/05/04 12:15:35;;;;;;;1.07;0.93;;;22.50;67.00;;;;;;5029242;28;21016;-59
2023/05/04 12:18:02;;;;;;;0.90;0.80;;;22.60;66.80;;;;;;5027785;28;20463;-64
2023/05/04 12:20:29;;;;;;;1.60;0.90;;;22.50;67.00;;;;;;5021563;28;20467;-60
2023/05/04 12:22:57;;;;;;;2.70;0.87;;;22.50;66.90;;;;;;5020954;28;20548;-68
2023/05/04 12:25:25;;;;;;;2.07;1.13;;;22.50;67.20;;;;;;5015990;28;20451;-63
2023/05/04 12:27:52;;;;;;;1.10;1.00;;;22.50;66.70;;;;;;5024928;28;20459;-67
2023/05/04 12:30:18;;;;;;;1.37;0.90;;;22.50;66.90;;;;;;5024406;28;20450;-55
2023/05/04 12:32:45;;;;;;;3.30;1.07;;;22.60;67.00;;;;;;5031105;28;20462;-59
2023/05/04 12:35:12;;;;;;;1.33;1.00;;;22.60;67.10;;;;;;5030789;28;20911;-59
2023/05/04 12:37:39;;;;;;;2.03;1.00;;;22.60;67.10;;;;;;5031565;28;20463;-59
2023/05/04 12:40:07;;;;;;;2.43;0.93;;;22.60;67.00;;;;;;5023061;28;20528;-59
2023/05/04 12:42:35;;;;;;;2.60;1.10;;;22.60;67.00;;;;;;5030759;28;20494;-63
2023/05/04 12:45:02;;;;;;;4.50;0.97;;;22.60;67.00;;;;;;5033932;28;20516;-57
2023/05/04 12:47:29;;;;;;;1.70;0.90;;;22.70;67.10;;;;;;5027429;28;20459;-58
2023/05/04 12:49:55;;;;;;;2.83;1.17;;;22.70;67.00;;;;;;5029810;28;20463;-55
2023/05/04 12:52:22;;;;;;;1.03;0.90;;;22.70;66.80;;;;;;5032973;28;20463;-56